logo dgac
Lunes 20 de Mayo del 2019
Buscar por aerodromo o helipuerto
Ingrese nombre de aeródromo, localidad o designador OACI:
TAF: TAF SCNT 201106Z 2012/2100 27020G30KT 9999 FEW025 SCT036 TX11/2018Z TN05/2100Z PROB40 TEMPO 2012/2016 27030G45KT BECMG 2016/2018 27020G30KT FEW030
TAF del 20/05/2019 a las 11:06 UTC
Período de validez: desde el 20 a las 12:00 UTC hasta el 21 a las 00:00 UTC
Viento: dirección 270 grados, velocidad 20 nudos, con ráfagas de velocidad máxima de 30Nudos
Visibilidad: 10 km o más
Nubes: Escasa nubosidad a 2500 pies sobre el nivel del aeródromo
Nubes: Nubosidad parcial a 3600 pies sobre el nivel del aeródromo
Temperatura máxima: 11ºC el 20 a las 18:00 UTC
Temperatura mínima: 5ºC el 21 a las 00:00 UTC
Entre las 12:00 UTC del 20 y las 16:00 UTC del 20 (de vez en cuando) , hay 40% de probabilidad de que:
Viento: dirección 270 grados, velocidad 30 nudos, con ráfagas de velocidad máxima de 45Nudos
Se espera un cambio entre las 16:00 UTC del 20 y las 18:00 UTC del 20, :
Viento: dirección 270 grados, velocidad 20 nudos, con ráfagas de velocidad máxima de 30Nudos
Nubes: Escasa nubosidad a 3000 pies sobre el nivel del aeródromo